Time;durP1;ratioP1;P1;durP2;ratioP2;P2;SDS_P1;SDS_P2;PMS_P1;PMS_P2;Temp;Humidity;BMP_temperature;BMP_pressure;BME280_temperature;BME280_humidity;BME280_pressure;Samples;Min_cycle;Max_cycle;Signal;HPM_P1;HPM_P2
2022/02/17 00:02:20;;;;;;;0.00;0.00;;;;;;;;;;4923178;29;20048;-86
2022/02/17 00:04:48;;;;;;;0.88;0.10;;;;;;;;;;4921851;29;20056;-85
2022/02/17 00:07:17;;;;;;;0.28;0.20;;;;;;;;;;4921141;29;20087;-87
2022/02/17 00:09:46;;;;;;;0.10;0.10;;;;;;;;;;4918975;29;20052;-87
2022/02/17 00:12:16;;;;;;;0.50;0.20;;;;;;;;;;4920274;29;20080;-86
2022/02/17 00:14:46;;;;;;;0.22;0.13;;;;;;;;;;4918292;29;20059;-86
2022/02/17 00:17:17;;;;;;;0.10;0.10;;;;;;;;;;4919549;29;20055;-87
2022/02/17 00:19:46;;;;;;;0.20;0.20;;;;;;;;;;4921631;29;20036;-86
2022/02/17 00:22:18;;;;;;;0.20;0.20;;;;;;;;;;4922584;29;20071;-86
2022/02/17 00:24:51;;;;;;;0.25;0.13;;;;;;;;;;4923665;29;20071;-86
2022/02/17 00:27:24;;;;;;;0.25;0.20;;;;;;;;;;4912966;29;20476;-85
2022/02/17 00:29:57;;;;;;;0.15;0.10;;;;;;;;;;4920596;29;20048;-85
2022/02/17 00:32:26;;;;;;;0.10;0.10;;;;;;;;;;4926637;29;20060;-85
2022/02/17 00:34:54;;;;;;;0.00;0.00;;;;;;;;;;4920850;29;20063;-86
2022/02/17 00:37:25;;;;;;;0.22;0.10;;;;;;;;;;4920262;29;20050;-86
2022/02/17 00:40:08;;;;;;;0.23;0.10;;;;;;;;;;4218746;29;10002798;-86
2022/02/17 00:42:46;;;;;;;1.40;0.25;;;;;;;;;;1355503;29;10002010;-84
2022/02/17 00:45:17;;;;;;;0.17;0.17;;;;;;;;;;4919180;29;20519;-86
2022/02/17 00:47:46;;;;;;;0.20;0.20;;;;;;;;;;4921244;29;20145;-87
2022/02/17 00:50:17;;;;;;;0.38;0.15;;;;;;;;;;4921217;29;20079;-86
2022/02/17 00:52:46;;;;;;;0.10;0.10;;;;;;;;;;4919259;29;20508;-85
2022/02/17 00:55:14;;;;;;;0.20;0.20;;;;;;;;;;4918616;29;20583;-85
2022/02/17 00:57:46;;;;;;;0.20;0.20;;;;;;;;;;4894096;29;20048;-85
2022/02/17 01:00:15;;;;;;;1.15;0.40;;;;;;;;;;4915881;29;20105;-86
2022/02/17 01:02:49;;;;;;;0.20;0.20;;;;;;;;;;4891467;29;20059;-84
2022/02/17 01:05:18;;;;;;;0.10;0.10;;;;;;;;;;4918322;29;20089;-85
2022/02/17 01:07:50;;;;;;;0.40;0.22;;;;;;;;;;4908400;29;20525;-84
2022/02/17 01:10:19;;;;;;;0.10;0.10;;;;;;;;;;4914277;29;20048;-84
2022/02/17 01:12:48;;;;;;;0.10;0.10;;;;;;;;;;4919805;29;20139;-86
2022/02/17 01:15:18;;;;;;;0.10;0.10;;;;;;;;;;4905359;29;20596;-86
2022/02/17 01:17:50;;;;;;;0.10;0.10;;;;;;;;;;4918316;29;20071;-86
2022/02/17 01:20:18;;;;;;;0.10;0.10;;;;;;;;;;4903509;29;20044;-86
2022/02/17 01:22:49;;;;;;;0.10;0.10;;;;;;;;;;4923317;29;20052;-86
2022/02/17 01:25:18;;;;;;;0.35;0.20;;;;;;;;;;4921728;29;20519;-86
2022/02/17 01:27:51;;;;;;;0.10;0.10;;;;;;;;;;4895623;29;20088;-86
2022/02/17 01:30:22;;;;;;;0.57;0.10;;;;;;;;;;4920419;29;20059;-85
2022/02/17 01:32:51;;;;;;;0.20;0.20;;;;;;;;;;4918798;29;20410;-87
2022/02/17 01:35:20;;;;;;;1.45;0.20;;;;;;;;;;4914831;29;20081;-86
2022/02/17 01:37:54;;;;;;;0.52;0.20;;;;;;;;;;4916249;29;20071;-86
2022/02/17 01:40:23;;;;;;;0.10;0.10;;;;;;;;;;4913743;29;20052;-85
2022/02/17 01:42:55;;;;;;;0.95;0.10;;;;;;;;;;4918577;29;20055;-86
2022/02/17 01:45:25;;;;;;;0.40;0.10;;;;;;;;;;4917505;29;20066;-86
2022/02/17 01:47:56;;;;;;;0.20;0.17;;;;;;;;;;4906590;29;20048;-86
2022/02/17 01:50:25;;;;;;;0.45;0.20;;;;;;;;;;4895057;29;20106;-86
2022/02/17 01:52:55;;;;;;;0.30;0.17;;;;;;;;;;4915017;29;20107;-87
2022/02/17 01:55:24;;;;;;;0.17;0.10;;;;;;;;;;4919945;29;20092;-87
2022/02/17 01:57:53;;;;;;;0.10;0.10;;;;;;;;;;4926000;29;20171;-85
2022/02/17 02:00:25;;;;;;;0.10;0.10;;;;;;;;;;4921859;29;20103;-86
2022/02/17 02:02:58;;;;;;;0.13;0.10;;;;;;;;;;4924780;29;20076;-86
2022/02/17 02:05:28;;;;;;;0.20;0.20;;;;;;;;;;4925101;29;20048;-86
2022/02/17 02:07:56;;;;;;;0.40;0.20;;;;;;;;;;4919016;29;20044;-84
2022/02/17 02:10:26;;;;;;;0.63;0.10;;;;;;;;;;4924170;29;20126;-85
2022/02/17 02:12:56;;;;;;;0.10;0.10;;;;;;;;;;4924735;29;20051;-86
2022/02/17 02:15:28;;;;;;;0.03;0.03;;;;;;;;;;4922893;29;20316;-85
2022/02/17 02:17:58;;;;;;;0.47;0.10;;;;;;;;;;4922200;29;20048;-86
2022/02/17 02:20:28;;;;;;;0.08;0.08;;;;;;;;;;4925577;29;20056;-86
2022/02/17 02:22:57;;;;;;;0.80;0.10;;;;;;;;;;4925023;29;20489;-86
2022/02/17 02:25:26;;;;;;;0.10;0.10;;;;;;;;;;4926745;29;20065;-84
2022/02/17 02:30:37;;;;;;;0.05;0.05;;;;;;;;;;4916688;29;20112;-86
2022/02/17 02:33:09;;;;;;;0.10;0.10;;;;;;;;;;4922457;29;20064;-86
2022/02/17 02:35:55;;;;;;;0.32;0.20;;;;;;;;;;4923698;29;20079;-86
2022/02/17 02:38:43;;;;;;;0.10;0.10;;;;;;;;;;4924130;29;20052;-87
2022/02/17 02:41:12;;;;;;;0.10;0.10;;;;;;;;;;4923402;29;20056;-86
2022/02/17 02:43:44;;;;;;;0.10;0.10;;;;;;;;;;4923581;29;20120;-86
2022/02/17 02:46:14;;;;;;;0.22;0.20;;;;;;;;;;4924195;29;20056;-86
2022/02/17 02:48:43;;;;;;;1.45;0.20;;;;;;;;;;4923216;29;20052;-87
2022/02/17 02:51:16;;;;;;;0.10;0.10;;;;;;;;;;4925434;29;20083;-85
2022/02/17 02:53:48;;;;;;;0.20;0.20;;;;;;;;;;4919730;29;20060;-87
2022/02/17 02:56:16;;;;;;;0.32;0.20;;;;;;;;;;4923179;29;20115;-86
2022/02/17 02:58:45;;;;;;;0.10;0.10;;;;;;;;;;4917036;29;20056;-85
2022/02/17 03:01:16;;;;;;;0.45;0.10;;;;;;;;;;4924222;29;20084;-86
2022/02/17 03:03:49;;;;;;;0.20;0.20;;;;;;;;;;4923570;29;20111;-87
2022/02/17 03:06:20;;;;;;;0.10;0.10;;;;;;;;;;4902958;29;20059;-85
2022/02/17 03:08:50;;;;;;;0.10;0.10;;;;;;;;;;4902835;29;20056;-86
2022/02/17 03:11:23;;;;;;;0.00;0.00;;;;;;;;;;4903608;29;20059;-87
2022/02/17 03:13:53;;;;;;;0.10;0.10;;;;;;;;;;4900619;29;20080;-87
2022/02/17 03:16:24;;;;;;;0.20;0.10;;;;;;;;;;4898894;29;20061;-86
2022/02/17 03:18:54;;;;;;;0.10;0.10;;;;;;;;;;4898106;29;20049;-86
2022/02/17 03:21:24;;;;;;;0.10;0.10;;;;;;;;;;4906439;29;20068;-84
2022/02/17 03:23:56;;;;;;;0.10;0.10;;;;;;;;;;4903296;29;20048;-85
2022/02/17 03:26:25;;;;;;;0.10;0.10;;;;;;;;;;4896739;29;20075;-85
2022/02/17 03:28:57;;;;;;;0.10;0.10;;;;;;;;;;4896511;29;20085;-85
2022/02/17 03:31:27;;;;;;;0.50;0.20;;;;;;;;;;4897440;29;20158;-87
2022/02/17 03:33:56;;;;;;;0.52;0.10;;;;;;;;;;4923584;29;20473;-86
2022/02/17 03:36:30;;;;;;;0.10;0.10;;;;;;;;;;4926601;29;20063;-85
2022/02/17 03:39:00;;;;;;;0.10;0.10;;;;;;;;;;4917814;29;20044;-86
2022/02/17 03:41:30;;;;;;;0.20;0.10;;;;;;;;;;4921880;29;20044;-86
2022/02/17 03:44:02;;;;;;;0.05;0.05;;;;;;;;;;4923439;29;20076;-86
2022/02/17 03:46:31;;;;;;;0.00;0.00;;;;;;;;;;4921700;29;20139;-87
2022/02/17 03:49:01;;;;;;;0.10;0.10;;;;;;;;;;4919844;29;20083;-86
2022/02/17 03:51:31;;;;;;;0.10;0.10;;;;;;;;;;4927437;29;20486;-86
2022/02/17 03:53:59;;;;;;;0.10;0.10;;;;;;;;;;4917129;29;20087;-85
2022/02/17 03:56:29;;;;;;;0.00;0.00;;;;;;;;;;4918596;29;20056;-86
2022/02/17 03:59:07;;;;;;;0.28;0.10;;;;;;;;;;4919440;29;20044;-85
2022/02/17 04:01:39;;;;;;;0.88;0.10;;;;;;;;;;4923143;29;20048;-86
2022/02/17 04:04:13;;;;;;;0.15;0.10;;;;;;;;;;4923676;29;20052;-85
2022/02/17 04:06:43;;;;;;;2.28;0.10;;;;;;;;;;4918299;29;20048;-88
2022/02/17 04:09:15;;;;;;;0.10;0.10;;;;;;;;;;4923509;29;20048;-87
2022/02/17 04:11:46;;;;;;;0.10;0.10;;;;;;;;;;4921802;29;20044;-86
2022/02/17 04:14:18;;;;;;;1.55;0.22;;;;;;;;;;4922709;29;20182;-86
2022/02/17 04:16:51;;;;;;;0.25;0.10;;;;;;;;;;4920722;29;20112;-85
2022/02/17 04:19:19;;;;;;;0.10;0.10;;;;;;;;;;4923630;29;20056;-85
2022/02/17 04:21:49;;;;;;;0.10;0.10;;;;;;;;;;4924281;29;20075;-86
2022/02/17 04:24:18;;;;;;;0.10;0.10;;;;;;;;;;4914162;29;20131;-86
2022/02/17 04:26:46;;;;;;;0.10;0.10;;;;;;;;;;4924778;29;20544;-86
2022/02/17 04:29:16;;;;;;;0.10;0.10;;;;;;;;;;4930200;29;20052;-86
2022/02/17 04:31:45;;;;;;;0.10;0.10;;;;;;;;;;4917845;29;20055;-87
2022/02/17 04:34:15;;;;;;;0.10;0.10;;;;;;;;;;4923519;29;20052;-86
2022/02/17 04:36:44;;;;;;;0.10;0.10;;;;;;;;;;4915843;29;20056;-86
2022/02/17 04:39:14;;;;;;;0.10;0.10;;;;;;;;;;4924439;29;20072;-85
2022/02/17 04:44:31;;;;;;;0.90;0.10;;;;;;;;;;4906799;29;20072;-86
2022/02/17 04:47:04;;;;;;;1.73;0.10;;;;;;;;;;4924105;29;20077;-86
2022/02/17 04:49:32;;;;;;;0.10;0.10;;;;;;;;;;4927270;29;20064;-87
2022/02/17 04:52:03;;;;;;;0.10;0.10;;;;;;;;;;4923266;29;20111;-86
2022/02/17 04:54:38;;;;;;;0.10;0.10;;;;;;;;;;4923858;29;20044;-87
2022/02/17 04:57:07;;;;;;;0.10;0.10;;;;;;;;;;4922813;29;20087;-86
2022/02/17 04:59:36;;;;;;;0.10;0.10;;;;;;;;;;4923799;29;20408;-87
2022/02/17 05:02:07;;;;;;;0.10;0.10;;;;;;;;;;4925704;29;20052;-87
2022/02/17 05:04:39;;;;;;;0.03;0.03;;;;;;;;;;4920585;29;20112;-86
2022/02/17 05:07:16;;;;;;;0.55;0.10;;;;;;;;;;4917798;29;20131;-87
2022/02/17 05:09:47;;;;;;;0.10;0.10;;;;;;;;;;4919401;29;20143;-86
2022/02/17 05:12:27;;;;;;;0.08;0.08;;;;;;;;;;4925889;29;20051;-86
2022/02/17 05:14:56;;;;;;;0.10;0.10;;;;;;;;;;4919952;29;20059;-86
2022/02/17 05:17:25;;;;;;;0.10;0.10;;;;;;;;;;4898599;29;20616;-86
2022/02/17 05:19:59;;;;;;;0.10;0.10;;;;;;;;;;4896779;29;20535;-86
2022/02/17 05:22:48;;;;;;;0.27;0.07;;;;;;;;;;4159981;29;10002042;-86
2022/02/17 05:25:21;;;;;;;0.10;0.10;;;;;;;;;;2038155;29;10001934;-87
2022/02/17 05:27:49;;;;;;;0.08;0.08;;;;;;;;;;4927981;29;20051;-84
2022/02/17 05:30:18;;;;;;;0.20;0.10;;;;;;;;;;4930820;29;20063;-85
2022/02/17 05:32:48;;;;;;;0.50;0.10;;;;;;;;;;4922504;29;20050;-86
2022/02/17 05:35:17;;;;;;;0.65;0.10;;;;;;;;;;4928727;29;20056;-86
2022/02/17 05:37:46;;;;;;;0.10;0.10;;;;;;;;;;4921630;29;20075;-86
2022/02/17 05:40:15;;;;;;;0.15;0.10;;;;;;;;;;4917167;29;20052;-86
2022/02/17 05:42:45;;;;;;;0.10;0.10;;;;;;;;;;4915663;29;20052;-83
2022/02/17 05:45:14;;;;;;;1.55;0.13;;;;;;;;;;4922168;29;20090;-84
2022/02/17 05:47:43;;;;;;;0.10;0.10;;;;;;;;;;4929412;29;20092;-86
2022/02/17 05:50:11;;;;;;;0.10;0.10;;;;;;;;;;4919583;29;20082;-86
2022/02/17 05:52:40;;;;;;;0.10;0.10;;;;;;;;;;4924532;29;20048;-86
2022/02/17 05:55:09;;;;;;;0.75;0.17;;;;;;;;;;4922191;29;20044;-86
2022/02/17 05:57:41;;;;;;;0.15;0.15;;;;;;;;;;4922095;29;20119;-88
2022/02/17 06:00:16;;;;;;;0.10;0.10;;;;;;;;;;4926545;29;20579;-86
2022/02/17 06:02:47;;;;;;;0.10;0.10;;;;;;;;;;4925736;29;20044;-86
2022/02/17 06:05:16;;;;;;;0.10;0.10;;;;;;;;;;4921597;29;20104;-87
2022/02/17 06:07:46;;;;;;;0.32;0.10;;;;;;;;;;4925475;29;20062;-85
2022/02/17 06:10:21;;;;;;;0.47;0.20;;;;;;;;;;4925329;29;20052;-87
2022/02/17 06:12:51;;;;;;;0.80;0.10;;;;;;;;;;4926111;29;20162;-87
2022/02/17 06:15:22;;;;;;;0.10;0.10;;;;;;;;;;4921745;29;20553;-87
2022/02/17 06:17:50;;;;;;;0.65;0.25;;;;;;;;;;4909763;29;20090;-87
2022/02/17 06:20:19;;;;;;;3.15;0.20;;;;;;;;;;4920610;29;20063;-86
2022/02/17 06:22:49;;;;;;;0.10;0.10;;;;;;;;;;4918447;29;20044;-85
2022/02/17 06:25:17;;;;;;;1.88;0.10;;;;;;;;;;4925641;29;20068;-86
2022/02/17 06:27:46;;;;;;;0.15;0.10;;;;;;;;;;4859377;29;20119;-86
2022/02/17 06:30:29;;;;;;;0.10;0.10;;;;;;;;;;369790;29;10022746;-88
2022/02/17 06:32:59;;;;;;;0.10;0.10;;;;;;;;;;4905365;29;20346;-85
2022/02/17 06:35:29;;;;;;;0.28;0.20;;;;;;;;;;4900258;29;20052;-86
2022/02/17 06:38:02;;;;;;;0.17;0.17;;;;;;;;;;4898087;29;20069;-86
2022/02/17 06:40:31;;;;;;;0.98;0.15;;;;;;;;;;4897697;29;20505;-87
2022/02/17 06:43:05;;;;;;;0.10;0.10;;;;;;;;;;4920005;29;20116;-82
2022/02/17 06:45:36;;;;;;;0.75;0.13;;;;;;;;;;4919771;29;20048;-85
2022/02/17 06:48:04;;;;;;;0.45;0.10;;;;;;;;;;4913407;29;20100;-86
2022/02/17 06:50:34;;;;;;;0.60;0.20;;;;;;;;;;4897865;29;20045;-86
2022/02/17 06:53:08;;;;;;;1.17;0.20;;;;;;;;;;4918758;29;20080;-86
2022/02/17 06:55:37;;;;;;;0.30;0.20;;;;;;;;;;4911052;29;20574;-86
2022/02/17 06:58:08;;;;;;;0.20;0.20;;;;;;;;;;4918979;29;20052;-86
2022/02/17 07:00:38;;;;;;;0.10;0.10;;;;;;;;;;4925033;29;20044;-86
2022/02/17 07:03:08;;;;;;;0.52;0.20;;;;;;;;;;4926654;29;20047;-86
2022/02/17 07:05:44;;;;;;;1.10;0.20;;;;;;;;;;4925012;29;20052;-85
2022/02/17 07:08:17;;;;;;;0.20;0.10;;;;;;;;;;4925430;29;20099;-86
2022/02/17 07:10:55;;;;;;;0.10;0.10;;;;;;;;;;4927498;29;20111;-84
2022/02/17 07:13:24;;;;;;;0.10;0.10;;;;;;;;;;4923059;29;20058;-84
2022/02/17 07:15:56;;;;;;;0.05;0.05;;;;;;;;;;4918233;29;20048;-86
2022/02/17 07:18:25;;;;;;;0.30;0.20;;;;;;;;;;4923197;29;20060;-86
2022/02/17 07:20:55;;;;;;;0.10;0.10;;;;;;;;;;4928527;29;20118;-87
2022/02/17 07:23:26;;;;;;;2.30;0.30;;;;;;;;;;4919348;29;20052;-85
2022/02/17 07:25:55;;;;;;;0.10;0.10;;;;;;;;;;4928422;29;20048;-84
2022/02/17 07:28:28;;;;;;;0.10;0.10;;;;;;;;;;4927611;29;20045;-87
2022/02/17 07:31:00;;;;;;;0.57;0.20;;;;;;;;;;4928055;29;20064;-85
2022/02/17 07:33:36;;;;;;;0.20;0.20;;;;;;;;;;4925280;29;20584;-86
2022/02/17 07:36:09;;;;;;;0.00;0.00;;;;;;;;;;4924035;29;20087;-86
2022/02/17 07:38:52;;;;;;;0.28;0.15;;;;;;;;;;4936798;29;20044;-86
2022/02/17 07:41:21;;;;;;;0.40;0.20;;;;;;;;;;4932558;29;20063;-85
2022/02/17 07:43:53;;;;;;;0.82;0.20;;;;;;;;;;4927604;29;20556;-85
2022/02/17 07:46:32;;;;;;;0.13;0.10;;;;;;;;;;4926953;29;20581;-86
2022/02/17 07:49:05;;;;;;;0.15;0.15;;;;;;;;;;4927240;29;20142;-85
2022/02/17 07:51:36;;;;;;;0.43;0.17;;;;;;;;;;4941659;29;20128;-86
2022/02/17 07:54:08;;;;;;;;;;;;;;;;;;4937141;29;20044;-85
2022/02/17 07:56:38;;;;;;;0.10;0.10;;;;;;;;;;4927095;29;19931;-87
2022/02/17 07:59:11;;;;;;;0.20;0.20;;;;;;;;;;4927657;29;20048;-85
2022/02/17 08:01:41;;;;;;;0.17;0.10;;;;;;;;;;4935780;29;20064;-86
2022/02/17 08:04:12;;;;;;;0.30;0.10;;;;;;;;;;4934403;29;20047;-86
2022/02/17 08:06:44;;;;;;;0.00;0.00;;;;;;;;;;4941471;29;20198;-86
2022/02/17 08:09:13;;;;;;;0.10;0.10;;;;;;;;;;4923987;29;20062;-86
2022/02/17 08:11:42;;;;;;;0.13;0.13;;;;;;;;;;4924055;29;20056;-86
2022/02/17 08:14:12;;;;;;;0.20;0.20;;;;;;;;;;4921921;29;20052;-86
2022/02/17 08:16:46;;;;;;;1.65;0.20;;;;;;;;;;4915788;29;20468;-85
2022/02/17 08:19:15;;;;;;;0.32;0.10;;;;;;;;;;4896308;29;20146;-85
2022/02/17 08:21:47;;;;;;;0.20;0.20;;;;;;;;;;4895711;29;20131;-86
2022/02/17 08:24:42;;;;;;;1.18;0.48;;;;;;;;;;500878;29;10022659;-87
2022/02/17 08:27:13;;;;;;;0.10;0.10;;;;;;;;;;4923006;29;20782;-85
2022/02/17 08:29:45;;;;;;;0.10;0.10;;;;;;;;;;4925980;29;20558;-88
2022/02/17 08:32:18;;;;;;;2.17;0.20;;;;;;;;;;4922991;29;20052;-86
2022/02/17 08:34:48;;;;;;;0.23;0.23;;;;;;;;;;4923622;29;20514;-86
2022/02/17 08:37:18;;;;;;;0.47;0.20;;;;;;;;;;4924499;29;20055;-87
2022/02/17 08:39:46;;;;;;;0.20;0.20;;;;;;;;;;4925374;29;20084;-86
2022/02/17 08:42:15;;;;;;;0.17;0.10;;;;;;;;;;4924589;29;20052;-85
2022/02/17 08:44:47;;;;;;;0.70;0.40;;;;;;;;;;4921280;29;20120;-87
2022/02/17 08:47:19;;;;;;;0.43;0.30;;;;;;;;;;4936358;28;20519;-85
2022/02/17 08:49:48;;;;;;;0.50;0.32;;;;;;;;;;4925968;29;20044;-86
2022/02/17 08:52:17;;;;;;;0.95;0.73;;;;;;;;;;4925511;29;20048;-84
2022/02/17 08:54:46;;;;;;;2.33;0.40;;;;;;;;;;4930763;29;20441;-85
2022/02/17 08:57:15;;;;;;;1.40;0.40;;;;;;;;;;4923932;29;20072;-85
2022/02/17 08:59:46;;;;;;;0.73;0.35;;;;;;;;;;4924601;29;20059;-86
2022/02/17 09:02:15;;;;;;;0.20;0.15;;;;;;;;;;4926453;29;20052;-86
2022/02/17 09:04:47;;;;;;;0.38;0.15;;;;;;;;;;4919686;29;20056;-85
2022/02/17 09:07:18;;;;;;;0.38;0.20;;;;;;;;;;4915926;29;20457;-85
2022/02/17 09:09:48;;;;;;;1.27;0.40;;;;;;;;;;4943546;29;20052;-85
2022/02/17 09:12:17;;;;;;;0.70;0.30;;;;;;;;;;4932552;29;20076;-85
2022/02/17 09:14:47;;;;;;;1.45;0.28;;;;;;;;;;4915874;29;20060;-85
2022/02/17 09:17:18;;;;;;;0.35;0.28;;;;;;;;;;4921436;29;20082;-85
2022/02/17 09:19:48;;;;;;;0.45;0.25;;;;;;;;;;4926900;29;20111;-86
2022/02/17 09:22:20;;;;;;;0.40;0.40;;;;;;;;;;4920692;29;20063;-85
2022/02/17 09:24:49;;;;;;;1.30;1.20;;;;;;;;;;4906633;29;20048;-85
2022/02/17 09:27:19;;;;;;;0.90;0.20;;;;;;;;;;4915443;29;20316;-85
2022/02/17 09:29:50;;;;;;;0.57;0.20;;;;;;;;;;4924161;29;20572;-85
2022/02/17 09:32:25;;;;;;;0.98;0.38;;;;;;;;;;4885367;29;20044;-86
2022/02/17 09:35:19;;;;;;;0.32;0.05;;;;;;;;;;921686;29;10003217;-86
2022/02/17 09:37:49;;;;;;;0.40;0.28;;;;;;;;;;4919419;29;20314;-85
2022/02/17 09:40:24;;;;;;;0.70;0.20;;;;;;;;;;4921247;29;20491;-85
2022/02/17 09:43:00;;;;;;;1.38;0.50;;;;;;;;;;4920628;29;20083;-86
2022/02/17 09:45:44;;;;;;;0.70;0.22;;;;;;;;;;4922476;29;20119;-86
2022/02/17 09:48:13;;;;;;;2.03;0.30;;;;;;;;;;4920756;29;20052;-86
2022/02/17 09:50:45;;;;;;;0.20;0.20;;;;;;;;;;4920358;29;20080;-85
2022/02/17 09:53:24;;;;;;;0.10;0.10;;;;;;;;;;4918760;29;20067;-85
2022/02/17 09:55:53;;;;;;;0.70;0.30;;;;;;;;;;4919278;29;20059;-85
2022/02/17 09:58:23;;;;;;;2.17;0.30;;;;;;;;;;4909471;29;20060;-85
2022/02/17 10:00:53;;;;;;;0.35;0.20;;;;;;;;;;4914998;29;20056;-85
2022/02/17 10:03:24;;;;;;;0.88;0.52;;;;;;;;;;4914501;29;20522;-86
2022/02/17 10:06:16;;;;;;;3.72;0.32;;;;;;;;;;4917865;29;20635;-86
2022/02/17 10:08:51;;;;;;;3.08;0.50;;;;;;;;;;4919972;29;20148;-85
2022/02/17 10:11:30;;;;;;;1.55;0.65;;;;;;;;;;4919237;29;20056;-86
2022/02/17 10:14:00;;;;;;;1.27;0.50;;;;;;;;;;4921952;29;20127;-85
2022/02/17 10:16:30;;;;;;;3.15;0.50;;;;;;;;;;4922792;29;20142;-85
2022/02/17 10:19:11;;;;;;;2.67;0.57;;;;;;;;;;4923244;29;20064;-85
2022/02/17 10:21:42;;;;;;;0.63;0.35;;;;;;;;;;4923404;29;20107;-85
2022/02/17 10:24:31;;;;;;;1.15;0.50;;;;;;;;;;4921807;29;20048;-86
2022/02/17 10:27:12;;;;;;;3.75;0.45;;;;;;;;;;4163944;29;10001433;-86
2022/02/17 10:29:45;;;;;;;5.75;0.50;;;;;;;;;;1689684;29;10002005;-86
2022/02/17 10:32:15;;;;;;;8.27;1.33;;;;;;;;;;4917397;29;20052;-86
2022/02/17 10:34:45;;;;;;;2.22;0.85;;;;;;;;;;4922226;29;20136;-85
2022/02/17 10:37:38;;;;;;;2.63;0.80;;;;;;;;;;4907371;29;20055;-85
2022/02/17 10:40:19;;;;;;;1.25;0.47;;;;;;;;;;4929017;29;20076;-86
2022/02/17 10:42:59;;;;;;;5.70;0.77;;;;;;;;;;4915929;29;20560;-86
2022/02/17 10:45:44;;;;;;;3.33;0.73;;;;;;;;;;4905979;29;20049;-86
2022/02/17 10:48:17;;;;;;;1.98;0.60;;;;;;;;;;4922670;29;20072;-85
2022/02/17 10:50:48;;;;;;;3.65;0.90;;;;;;;;;;4922815;29;20048;-86
2022/02/17 10:53:23;;;;;;;1.92;0.55;;;;;;;;;;4922883;29;20526;-86
2022/02/17 10:55:56;;;;;;;5.13;0.90;;;;;;;;;;4913854;29;20059;-86
2022/02/17 10:58:27;;;;;;;1.25;0.70;;;;;;;;;;4921757;29;20044;-86
2022/02/17 11:00:58;;;;;;;8.45;1.17;;;;;;;;;;4930675;29;20058;-85
2022/02/17 11:03:32;;;;;;;4.05;0.68;;;;;;;;;;4928116;29;20056;-84
2022/02/17 11:06:08;;;;;;;2.25;0.43;;;;;;;;;;4920942;29;20060;-85
2022/02/17 11:08:41;;;;;;;2.83;0.50;;;;;;;;;;4921918;29;20044;-84
2022/02/17 11:11:13;;;;;;;1.98;0.50;;;;;;;;;;4919266;29;20052;-84
2022/02/17 11:13:45;;;;;;;6.22;0.68;;;;;;;;;;4913655;29;20112;-86
2022/02/17 11:16:21;;;;;;;4.28;0.80;;;;;;;;;;4921082;29;20042;-86
2022/02/17 11:18:52;;;;;;;2.95;0.45;;;;;;;;;;4922130;29;20513;-86
2022/02/17 11:21:23;;;;;;;2.97;1.10;;;;;;;;;;4906364;29;20048;-84
2022/02/17 11:24:03;;;;;;;5.65;1.48;;;;;;;;;;4922795;29;20411;-86
2022/02/17 11:26:35;;;;;;;2.92;0.60;;;;;;;;;;4933686;28;20056;-85
2022/02/17 11:29:19;;;;;;;5.00;1.02;;;;;;;;;;4913983;29;20045;-86
2022/02/17 11:31:57;;;;;;;3.40;1.05;;;;;;;;;;4920006;29;20076;-86
2022/02/17 11:34:35;;;;;;;3.22;0.95;;;;;;;;;;4913104;29;20063;-86
2022/02/17 11:37:28;;;;;;;3.10;1.02;;;;;;;;;;4922244;29;20452;-86
2022/02/17 11:40:07;;;;;;;5.35;1.17;;;;;;;;;;4922318;29;20407;-86
2022/02/17 11:42:37;;;;;;;2.90;0.52;;;;;;;;;;4922941;29;20480;-87
2022/02/17 11:45:12;;;;;;;1.90;0.60;;;;;;;;;;4919312;29;20041;-87
2022/02/17 11:48:00;;;;;;;1.05;0.57;;;;;;;;;;4917009;29;20052;-86
2022/02/17 11:50:31;;;;;;;5.47;1.00;;;;;;;;;;4925685;29;20051;-86
2022/02/17 11:53:20;;;;;;;4.85;0.60;;;;;;;;;;4924180;29;20080;-87
2022/02/17 11:55:51;;;;;;;6.32;1.38;;;;;;;;;;4922434;29;20056;-86
2022/02/17 11:58:47;;;;;;;4.13;0.77;;;;;;;;;;4925506;29;20047;-86
2022/02/17 12:01:35;;;;;;;4.32;1.05;;;;;;;;;;4924163;29;20091;-85
2022/02/17 12:04:09;;;;;;;6.60;0.60;;;;;;;;;;4915209;29;20147;-87
2022/02/17 12:07:00;;;;;;;6.32;0.80;;;;;;;;;;4921415;29;20465;-86
2022/02/17 12:09:35;;;;;;;9.88;1.25;;;;;;;;;;4922648;29;20468;-86
2022/02/17 12:12:44;;;;;;;3.72;0.80;;;;;;;;;;4922797;29;20064;-86
2022/02/17 12:15:17;;;;;;;4.38;1.00;;;;;;;;;;4923569;29;20062;-87
2022/02/17 12:17:47;;;;;;;8.43;1.05;;;;;;;;;;4921763;29;20115;-86
2022/02/17 12:20:17;;;;;;;5.53;1.05;;;;;;;;;;4917850;29;20052;-85
2022/02/17 12:22:51;;;;;;;6.85;1.08;;;;;;;;;;4891693;29;20058;-86
2022/02/17 12:25:22;;;;;;;8.00;0.95;;;;;;;;;;4891238;29;21499;-85
2022/02/17 12:28:19;;;;;;;4.58;1.05;;;;;;;;;;2244094;28;10023742;-86
2022/02/17 12:30:52;;;;;;;7.30;1.35;;;;;;;;;;3564957;29;10001623;-84
2022/02/17 12:33:22;;;;;;;3.53;1.15;;;;;;;;;;4922696;29;20413;-86
2022/02/17 12:35:57;;;;;;;6.13;0.93;;;;;;;;;;4923048;29;20119;-85
2022/02/17 12:38:28;;;;;;;3.05;0.82;;;;;;;;;;4923103;29;20583;-87
2022/02/17 12:41:02;;;;;;;3.85;0.80;;;;;;;;;;4915526;29;20056;-86
2022/02/17 12:43:45;;;;;;;3.15;0.90;;;;;;;;;;4919678;29;20119;-86
2022/02/17 12:46:16;;;;;;;5.78;0.93;;;;;;;;;;4906946;29;20087;-85
2022/02/17 12:48:46;;;;;;;5.18;1.02;;;;;;;;;;4915696;29;20444;-87
2022/02/17 12:51:33;;;;;;;6.38;1.27;;;;;;;;;;4927603;29;20148;-86
2022/02/17 12:54:12;;;;;;;7.05;1.08;;;;;;;;;;4902041;29;20482;-86
2022/02/17 12:56:45;;;;;;;5.07;1.35;;;;;;;;;;4917210;29;20445;-86
2022/02/17 12:59:16;;;;;;;6.82;1.05;;;;;;;;;;4910806;29;20509;-86
2022/02/17 13:01:50;;;;;;;4.85;1.08;;;;;;;;;;4917947;29;20071;-86
2022/02/17 13:04:20;;;;;;;6.03;1.13;;;;;;;;;;4921523;29;20103;-86
2022/02/17 13:07:00;;;;;;;5.90;0.90;;;;;;;;;;4921417;29;20075;-86
2022/02/17 13:12:58;;;;;;;4.88;1.10;;;;;;;;;;4914232;29;20060;-86
2022/02/17 13:15:36;;;;;;;4.82;0.85;;;;;;;;;;4923446;29;20056;-86
2022/02/17 13:18:07;;;;;;;3.60;0.63;;;;;;;;;;4901659;29;20115;-87
2022/02/17 13:20:36;;;;;;;1.17;0.45;;;;;;;;;;4917826;29;20086;-87
2022/02/17 13:23:18;;;;;;;7.22;1.05;;;;;;;;;;4921136;29;20048;-87
2022/02/17 13:25:48;;;;;;;5.95;1.00;;;;;;;;;;4916970;29;20099;-86
2022/02/17 13:28:19;;;;;;;5.82;0.70;;;;;;;;;;4925223;29;20044;-86
2022/02/17 13:30:52;;;;;;;3.47;0.75;;;;;;;;;;4920264;29;20094;-87
2022/02/17 13:33:27;;;;;;;2.35;0.75;;;;;;;;;;4918655;29;20100;-86
2022/02/17 13:38:42;;;;;;;4.70;1.02;;;;;;;;;;4919910;29;20515;-87
2022/02/17 13:41:14;;;;;;;8.25;0.80;;;;;;;;;;4923231;29;20060;-87
2022/02/17 13:43:48;;;;;;;1.98;0.68;;;;;;;;;;4922767;29;20076;-89
2022/02/17 13:46:20;;;;;;;5.25;1.08;;;;;;;;;;4903204;29;20048;-87
2022/02/17 13:48:51;;;;;;;3.05;0.60;;;;;;;;;;4923845;29;20090;-87
2022/02/17 13:51:26;;;;;;;3.53;0.82;;;;;;;;;;4913058;29;20044;-85
2022/02/17 13:53:59;;;;;;;4.78;1.00;;;;;;;;;;4922657;29;20563;-86
2022/02/17 13:56:32;;;;;;;4.47;0.88;;;;;;;;;;4928417;28;20044;-84
2022/02/17 13:59:08;;;;;;;4.10;1.38;;;;;;;;;;4935833;29;20130;-86
2022/02/17 14:01:49;;;;;;;2.88;0.77;;;;;;;;;;4925605;29;20460;-87
2022/02/17 14:04:30;;;;;;;5.25;0.80;;;;;;;;;;4930013;29;20051;-87
2022/02/17 14:07:05;;;;;;;9.65;1.70;;;;;;;;;;4923520;28;20071;-88
2022/02/17 14:09:35;;;;;;;;;;;;;;;;;;4931840;29;20123;-86
2022/02/17 14:12:05;;;;;;;4.90;0.80;;;;;;;;;;4930532;29;19983;-87
2022/02/17 14:14:43;;;;;;;4.80;0.77;;;;;;;;;;4930517;29;20056;-86
2022/02/17 14:17:26;;;;;;;7.80;1.00;;;;;;;;;;4923746;29;20071;-87
2022/02/17 14:20:06;;;;;;;4.70;1.02;;;;;;;;;;4927895;29;20048;-87
2022/02/17 14:22:36;;;;;;;3.45;0.98;;;;;;;;;;4930721;29;20087;-86
2022/02/17 14:25:06;;;;;;;2.72;0.60;;;;;;;;;;4924340;29;20135;-87
2022/02/17 14:27:43;;;;;;;8.05;1.27;;;;;;;;;;4925368;29;20051;-88
2022/02/17 14:30:17;;;;;;;4.32;0.70;;;;;;;;;;4925068;29;20386;-85
2022/02/17 14:32:48;;;;;;;7.22;0.88;;;;;;;;;;4928414;29;20056;-85
2022/02/17 14:35:17;;;;;;;6.47;0.70;;;;;;;;;;4924881;29;20060;-86
2022/02/17 14:37:52;;;;;;;3.67;0.75;;;;;;;;;;4854607;29;20056;-85
2022/02/17 14:40:37;;;;;;;4.50;1.00;;;;;;;;;;110024;29;10023823;-85
2022/02/17 14:43:06;;;;;;;4.85;0.88;;;;;;;;;;4940271;29;20305;-86
2022/02/17 14:45:40;;;;;;;3.30;0.88;;;;;;;;;;4923686;29;20048;-85
2022/02/17 14:48:12;;;;;;;6.32;1.33;;;;;;;;;;4926188;29;20132;-86
2022/02/17 14:50:43;;;;;;;4.88;0.70;;;;;;;;;;4925746;29;20052;-86
2022/02/17 14:53:13;;;;;;;6.45;1.00;;;;;;;;;;4922006;29;20075;-85
2022/02/17 14:55:44;;;;;;;4.53;0.88;;;;;;;;;;4914673;29;20055;-86
2022/02/17 14:58:15;;;;;;;5.53;0.90;;;;;;;;;;4924204;29;20048;-85
2022/02/17 15:00:44;;;;;;;4.40;1.27;;;;;;;;;;4923684;29;20063;-85
2022/02/17 15:03:30;;;;;;;4.38;1.02;;;;;;;;;;4926203;29;20048;-85
2022/02/17 15:06:08;;;;;;;3.25;0.88;;;;;;;;;;4921640;29;20059;-85
2022/02/17 15:08:40;;;;;;;5.13;1.15;;;;;;;;;;4924813;29;20523;-86
2022/02/17 15:11:10;;;;;;;2.90;1.17;;;;;;;;;;4925780;29;20048;-87
2022/02/17 15:13:46;;;;;;;4.47;0.95;;;;;;;;;;4929205;29;20091;-85
2022/02/17 15:16:16;;;;;;;5.05;0.98;;;;;;;;;;4908115;29;20112;-85
2022/02/17 15:18:47;;;;;;;8.02;1.33;;;;;;;;;;4911030;29;20059;-85
2022/02/17 15:21:18;;;;;;;6.22;0.77;;;;;;;;;;4910096;29;20052;-86
2022/02/17 15:23:47;;;;;;;7.43;1.02;;;;;;;;;;4910299;29;20532;-85
2022/02/17 15:26:20;;;;;;;3.53;0.80;;;;;;;;;;4905828;29;20056;-85
2022/02/17 15:29:00;;;;;;;3.17;0.90;;;;;;;;;;4904462;29;20063;-85